createdAt,value
2023-04-26T00:00:00.644Z,99358.13
2023-04-26T00:03:04.564Z,99367.50
2023-04-26T00:06:09.958Z,99368.09
2023-04-26T00:09:12.403Z,99365.44
2023-04-26T00:12:15.343Z,99367.56
2023-04-26T00:15:17.960Z,99379.66
2023-04-26T00:18:20.870Z,99380.03
2023-04-26T00:21:23.860Z,99375.34
2023-04-26T00:24:26.890Z,99387.53
2023-04-26T00:27:29.479Z,99385.94
2023-04-26T00:30:37.538Z,99385.25
2023-04-26T00:33:40.109Z,99393.56
2023-04-26T00:36:43.057Z,99399.06
2023-04-26T00:39:45.720Z,99400.44
2023-04-26T00:42:48.547Z,99407.34
2023-04-26T00:45:51.878Z,99407.97
2023-04-26T00:48:55.859Z,99408.94
2023-04-26T00:51:58.597Z,99419.66
2023-04-26T00:55:01.414Z,99415.94
2023-04-26T00:58:03.923Z,99413.94
2023-04-26T01:01:07.802Z,99416.66
2023-04-26T01:04:13.251Z,99411.38
2023-04-26T01:07:16.337Z,99424.03
2023-04-26T01:10:19.222Z,99413.75
2023-04-26T01:13:22.104Z,99419.78
2023-04-26T01:16:25.007Z,99419.50
2023-04-26T01:19:28.073Z,99422.25
2023-04-26T01:22:34.740Z,99423.94
2023-04-26T01:25:37.692Z,99427.78
2023-04-26T01:28:41.173Z,99432.03
2023-04-26T01:31:44.754Z,99435.41
2023-04-26T01:34:47.282Z,99428.72
2023-04-26T01:37:50.107Z,99446.53
2023-04-26T01:40:52.712Z,99444.84
2023-04-26T01:43:56.062Z,99448.59
2023-04-26T01:47:00.624Z,99449.41
2023-04-26T01:50:03.686Z,99445.94
2023-04-26T01:53:06.499Z,99450.13
2023-04-26T01:56:09.326Z,99460.03
2023-04-26T01:59:13.050Z,99461.50
2023-04-26T02:02:17.684Z,99454.44
2023-04-26T02:05:20.771Z,99470.44
2023-04-26T02:08:23.942Z,99466.59
2023-04-26T02:11:27.166Z,99467.78
2023-04-26T02:14:29.630Z,99463.50
2023-04-26T02:17:33.044Z,99467.91
2023-04-26T02:20:36.874Z,99467.16
2023-04-26T02:23:39.738Z,99474.44
2023-04-26T02:26:42.344Z,99476.09
2023-04-26T02:29:46.536Z,99481.13
2023-04-26T02:32:49.052Z,99471.25
2023-04-26T02:35:51.835Z,99474.72
2023-04-26T02:38:55.170Z,99475.31
2023-04-26T02:41:58.116Z,99479.44
2023-04-26T02:45:00.633Z,99482.59
2023-04-26T02:48:03.651Z,99480.09
2023-04-26T02:51:06.351Z,99472.12
2023-04-26T02:54:09.491Z,99483.00
2023-04-26T02:57:12.526Z,99483.00
2023-04-26T03:00:15.506Z,99489.09
2023-04-26T03:03:18.245Z,99486.34
2023-04-26T03:06:21.518Z,99487.25
2023-04-26T03:09:24.158Z,99495.03
2023-04-26T03:12:27.186Z,99495.38
2023-04-26T03:15:29.654Z,99510.47
2023-04-26T03:18:33.251Z,99511.59
2023-04-26T03:21:36.377Z,99517.09
2023-04-26T03:24:39.475Z,99518.28
2023-04-26T03:27:43.019Z,99524.31
2023-04-26T03:30:46.451Z,99528.37
2023-04-26T03:33:49.024Z,99526.88
2023-04-26T03:36:51.880Z,99529.63
2023-04-26T03:39:54.838Z,99534.28
2023-04-26T03:42:58.147Z,99537.25
2023-04-26T03:46:01.076Z,99548.34
2023-04-26T03:49:04.380Z,99545.25
2023-04-26T03:52:06.939Z,99558.13
2023-04-26T03:55:11.796Z,99558.41
2023-04-26T03:58:14.786Z,99560.88
2023-04-26T04:01:18.218Z,99562.44
2023-04-26T04:04:21.211Z,99559.69
2023-04-26T04:07:23.951Z,99568.66
2023-04-26T04:10:26.892Z,99573.66
2023-04-26T04:13:29.967Z,99579.22
2023-04-26T04:16:33.112Z,99574.69
2023-04-26T04:19:35.887Z,99576.97
2023-04-26T04:22:39.792Z,99586.59
2023-04-26T04:25:45.565Z,99576.16
2023-04-26T04:28:48.672Z,99586.62
2023-04-26T04:31:52.167Z,99586.69
2023-04-26T04:34:56.786Z,99601.44
2023-04-26T04:38:00.272Z,99593.44
2023-04-26T04:41:06.814Z,99586.38
2023-04-26T04:44:09.543Z,99590.13
2023-04-26T04:47:13.324Z,99615.62
2023-04-26T04:50:16.024Z,99612.91
2023-04-26T04:53:19.125Z,99612.50
2023-04-26T04:56:22.655Z,99619.50
2023-04-26T04:59:26.200Z,99626.00
2023-04-26T05:02:29.523Z,99619.22
2023-04-26T05:05:32.851Z,99623.53
2023-04-26T05:08:36.414Z,99631.50
2023-04-26T05:11:39.653Z,99632.66
2023-04-26T05:14:43.098Z,99642.56
2023-04-26T05:17:46.536Z,99649.97
2023-04-26T05:20:50.581Z,99648.69
2023-04-26T05:23:53.729Z,99650.66
2023-04-26T05:26:58.699Z,99642.37
2023-04-26T05:30:02.393Z,99650.94
2023-04-26T05:33:05.850Z,99647.12
2023-04-26T05:36:09.410Z,99649.34
2023-04-26T05:39:12.450Z,99664.09
2023-04-26T05:42:17.702Z,99669.59
2023-04-26T05:45:20.806Z,99663.84
2023-04-26T05:48:24.787Z,99664.91
2023-04-26T05:51:28.124Z,99664.66
2023-04-26T05:54:31.152Z,99667.03
2023-04-26T05:57:34.655Z,99668.75
2023-04-26T06:00:39.003Z,99675.84
2023-04-26T06:03:42.932Z,99673.59
2023-04-26T06:06:46.068Z,99670.72
2023-04-26T06:09:49.447Z,99676.59
2023-04-26T06:12:52.451Z,99679.28
2023-04-26T06:15:55.485Z,99681.44
2023-04-26T06:18:58.138Z,99685.78
2023-04-26T06:22:00.945Z,99676.72
2023-04-26T06:25:05.034Z,99679.84
2023-04-26T06:28:09.048Z,99685.12
2023-04-26T06:31:11.796Z,99693.25
2023-04-26T06:34:14.915Z,99694.91
2023-04-26T06:37:18.019Z,99687.78
2023-04-26T06:40:21.208Z,99692.25
2023-04-26T06:43:24.556Z,99691.03
2023-04-26T06:46:28.020Z,99687.38
2023-04-26T06:49:30.921Z,99679.75
2023-04-26T06:52:34.022Z,99685.44
2023-04-26T06:55:36.583Z,99689.34
2023-04-26T06:58:39.416Z,99687.91
2023-04-26T07:01:42.447Z,99690.94
2023-04-26T07:04:45.848Z,99680.41
2023-04-26T07:07:50.197Z,99687.91
2023-04-26T07:10:55.431Z,99701.69
2023-04-26T07:13:58.045Z,99695.41
2023-04-26T07:17:01.123Z,99701.97
2023-04-26T07:20:04.789Z,99696.25
2023-04-26T07:23:07.924Z,99703.47
2023-04-26T07:26:11.794Z,99714.09
2023-04-26T07:29:15.048Z,99713.16
2023-04-26T07:32:17.624Z,99722.69
2023-04-26T07:35:21.007Z,99725.72
2023-04-26T07:38:24.265Z,99734.31
2023-04-26T07:41:27.277Z,99744.38
2023-04-26T07:44:30.044Z,99741.66
2023-04-26T07:47:33.152Z,99739.63
2023-04-26T07:50:36.229Z,99748.28
2023-04-26T07:53:40.382Z,99751.19
2023-04-26T07:56:43.001Z,99743.94
2023-04-26T07:59:45.923Z,99755.94
2023-04-26T08:02:50.388Z,99755.41
2023-04-26T08:05:54.117Z,99751.41
2023-04-26T08:08:57.312Z,99744.75
2023-04-26T08:12:00.388Z,99736.91
2023-04-26T08:15:07.080Z,99742.28
2023-04-26T08:18:09.830Z,99751.09
2023-04-26T08:21:12.483Z,99756.50
2023-04-26T08:24:15.378Z,99766.25
2023-04-26T08:27:19.172Z,99767.50
2023-04-26T08:30:22.714Z,99775.03
2023-04-26T08:33:26.476Z,99768.81
2023-04-26T08:36:29.312Z,99769.41
2023-04-26T08:39:33.599Z,99779.06
2023-04-26T08:42:44.386Z,99777.47
2023-04-26T08:45:47.557Z,99772.19
2023-04-26T08:48:58.006Z,99784.59
2023-04-26T08:52:02.049Z,99779.69
2023-04-26T08:55:06.583Z,99787.53
2023-04-26T08:58:09.477Z,99784.81
2023-04-26T09:01:15.359Z,99787.91
2023-04-26T09:04:18.272Z,99787.47
2023-04-26T09:07:26.927Z,99786.00
2023-04-26T09:10:32.755Z,99786.41
2023-04-26T09:13:35.668Z,99783.28
2023-04-26T09:16:38.265Z,99793.97
2023-04-26T09:19:45.164Z,99781.38
2023-04-26T09:22:48.533Z,99795.84
2023-04-26T09:25:51.624Z,99791.53
2023-04-26T09:29:17.737Z,99799.25
2023-04-26T09:32:20.925Z,99780.47
2023-04-26T09:35:25.632Z,99783.84
2023-04-26T09:38:30.031Z,99789.81
2023-04-26T09:41:45.572Z,99787.50
2023-04-26T09:44:48.568Z,99798.84
2023-04-26T09:47:51.671Z,99788.91
2023-04-26T09:50:59.653Z,99780.87
2023-04-26T09:54:02.270Z,99786.09
2023-04-26T09:57:05.424Z,99776.81
2023-04-26T10:00:12.353Z,99785.25
2023-04-26T10:03:19.436Z,99791.88
2023-04-26T10:06:22.392Z,99785.41
2023-04-26T10:09:28.033Z,99788.75
2023-04-26T10:12:30.826Z,99781.75
2023-04-26T10:15:34.050Z,99776.03
2023-04-26T10:18:36.780Z,99774.88
2023-04-26T10:21:44.269Z,99779.59
2023-04-26T10:24:48.897Z,99782.81
2023-04-26T10:27:53.488Z,99788.28
2023-04-26T10:30:57.916Z,99783.47
2023-04-26T10:34:31.421Z,99779.50
2023-04-26T10:37:59.925Z,99776.09
2023-04-26T10:41:32.678Z,99792.25
2023-04-26T10:44:41.199Z,99789.53
2023-04-26T10:47:44.246Z,99778.34
2023-04-26T10:51:02.422Z,99782.78
2023-04-26T10:54:07.433Z,99777.63
2023-04-26T10:57:12.552Z,99777.72
2023-04-26T11:00:17.973Z,99786.72
2023-04-26T11:03:23.268Z,99788.31
2023-04-26T11:06:29.660Z,99785.25
2023-04-26T11:09:49.035Z,99777.84
2023-04-26T11:13:01.644Z,99764.06
2023-04-26T11:16:06.466Z,99772.56
2023-04-26T11:19:10.022Z,99771.38
2023-04-26T11:22:12.994Z,99772.31
2023-04-26T11:25:16.205Z,99761.66
2023-04-26T11:28:19.501Z,99750.56
2023-04-26T11:31:22.469Z,99778.34
2023-04-26T11:34:35.638Z,99767.47
2023-04-26T11:37:38.623Z,99771.13
2023-04-26T11:40:53.410Z,99780.06
2023-04-26T11:43:59.675Z,99783.56
2023-04-26T11:47:06.497Z,99786.47
2023-04-26T11:50:12.609Z,99775.72
2023-04-26T11:53:15.542Z,99778.94
2023-04-26T11:56:20.670Z,99786.72
2023-04-26T11:59:29.168Z,99786.00
2023-04-26T12:02:32.382Z,99794.38
2023-04-26T12:05:35.764Z,99790.88
2023-04-26T12:08:38.445Z,99784.84
2023-04-26T12:11:41.338Z,99786.00
2023-04-26T12:14:45.524Z,99792.22
2023-04-26T12:17:56.707Z,99799.81
2023-04-26T12:21:00.787Z,99778.53
2023-04-26T12:24:05.181Z,99785.34
2023-04-26T12:27:07.963Z,99791.66
2023-04-26T12:30:12.451Z,99789.31
2023-04-26T12:33:17.711Z,99798.31
2023-04-26T12:36:22.317Z,99799.09
2023-04-26T12:39:26.276Z,99794.56
2023-04-26T12:42:29.080Z,99795.78
2023-04-26T12:45:32.069Z,99788.56
2023-04-26T12:48:37.512Z,99795.16
2023-04-26T12:51:41.584Z,99805.91
2023-04-26T12:54:44.933Z,99807.75
2023-04-26T12:57:47.713Z,99796.56
2023-04-26T13:00:51.286Z,99808.50
2023-04-26T13:03:55.647Z,99803.91
2023-04-26T13:07:01.815Z,99809.53
2023-04-26T13:10:06.601Z,99798.81
2023-04-26T13:13:10.881Z,99803.03
2023-04-26T13:16:13.682Z,99810.59
2023-04-26T13:19:17.359Z,99809.03
2023-04-26T13:22:21.018Z,99814.69
2023-04-26T13:25:23.965Z,99819.34
2023-04-26T13:28:26.547Z,99814.97
2023-04-26T13:31:29.662Z,99823.06
2023-04-26T13:34:32.297Z,99823.81
2023-04-26T13:37:35.907Z,99820.09
2023-04-26T13:40:39.646Z,99818.87
2023-04-26T13:43:42.818Z,99829.53
2023-04-26T13:46:46.620Z,99810.47
2023-04-26T13:49:49.780Z,99828.41
2023-04-26T13:52:53.846Z,99834.19
2023-04-26T13:55:57.010Z,99819.97
2023-04-26T13:59:06.766Z,99836.50
2023-04-26T14:02:16.601Z,99829.22
2023-04-26T14:05:20.347Z,99830.12
2023-04-26T14:08:25.676Z,99819.53
2023-04-26T14:11:28.682Z,99841.00
2023-04-26T14:14:31.169Z,99840.91
2023-04-26T14:17:34.208Z,99843.59
2023-04-26T14:20:36.895Z,99850.69
2023-04-26T14:23:40.523Z,99856.37
2023-04-26T14:26:43.068Z,99859.62
2023-04-26T14:29:46.036Z,99850.19
2023-04-26T14:32:48.552Z,99840.44
2023-04-26T14:35:52.286Z,99852.22
2023-04-26T14:38:54.813Z,99860.62
2023-04-26T14:41:58.183Z,99858.72
2023-04-26T14:45:02.068Z,99846.78
2023-04-26T14:48:05.709Z,99864.75
2023-04-26T14:51:08.281Z,99864.16
2023-04-26T14:54:11.431Z,99872.63
2023-04-26T14:57:14.061Z,99871.06
2023-04-26T15:00:18.077Z,99864.66
2023-04-26T15:03:21.125Z,99863.59
2023-04-26T15:06:24.272Z,99859.47
2023-04-26T15:09:29.020Z,99858.25
2023-04-26T15:12:33.393Z,99868.88
2023-04-26T15:15:36.092Z,99867.62
2023-04-26T15:18:40.226Z,99874.47
2023-04-26T15:21:43.270Z,99880.13
2023-04-26T15:24:46.318Z,99872.31
2023-04-26T15:27:50.350Z,99892.81
2023-04-26T15:31:04.204Z,99875.56
2023-04-26T15:34:06.679Z,99872.06
2023-04-26T15:37:10.467Z,99882.94
2023-04-26T15:40:13.401Z,99881.84
2023-04-26T15:43:16.974Z,99885.47
2023-04-26T15:46:19.533Z,99882.69
2023-04-26T15:49:26.253Z,99882.13
2023-04-26T15:52:28.875Z,99888.41
2023-04-26T15:55:33.041Z,99902.19
2023-04-26T15:58:39.339Z,99896.34
2023-04-26T16:01:43.998Z,99899.44
2023-04-26T16:04:47.861Z,99885.34
2023-04-26T16:07:51.239Z,99891.59
2023-04-26T16:10:58.505Z,99891.75
2023-04-26T16:14:01.573Z,99895.25
2023-04-26T16:17:05.161Z,99899.12
2023-04-26T16:20:08.407Z,99899.44
2023-04-26T16:23:11.860Z,99898.00
2023-04-26T16:26:14.525Z,99904.31
2023-04-26T16:29:17.774Z,99902.91
2023-04-26T16:32:21.230Z,99901.66
2023-04-26T16:35:24.049Z,99904.97
2023-04-26T16:38:28.584Z,99906.25
2023-04-26T16:41:31.616Z,99907.63
2023-04-26T16:44:34.116Z,99905.53
2023-04-26T16:47:37.792Z,99916.69
2023-04-26T16:50:40.458Z,99911.78
2023-04-26T16:53:43.793Z,99919.88
2023-04-26T16:56:46.196Z,99921.53
2023-04-26T16:59:49.089Z,99930.09
2023-04-26T17:02:51.709Z,99928.19
2023-04-26T17:05:54.923Z,99931.09
2023-04-26T17:08:57.580Z,99932.47
2023-04-26T17:12:00.424Z,99946.72
2023-04-26T17:15:04.558Z,99939.41
2023-04-26T17:18:08.502Z,99948.22
2023-04-26T17:21:11.638Z,99944.09
2023-04-26T17:24:14.670Z,99947.41
2023-04-26T17:27:18.069Z,99956.66
2023-04-26T17:30:22.154Z,99959.78
2023-04-26T17:33:27.087Z,99955.63
2023-04-26T17:36:30.317Z,99962.03
2023-04-26T17:39:33.168Z,99966.47
2023-04-26T17:42:36.483Z,99965.19
2023-04-26T17:45:41.310Z,99970.50
2023-04-26T17:48:45.871Z,99969.56
2023-04-26T17:51:48.486Z,99972.97
2023-04-26T17:54:51.687Z,99978.47
2023-04-26T17:57:54.541Z,99984.97
2023-04-26T18:00:57.604Z,99990.72
2023-04-26T18:04:01.025Z,99994.94
2023-04-26T18:07:04.436Z,100000.31
2023-04-26T18:10:08.163Z,100002.84
2023-04-26T18:13:12.053Z,99999.84
2023-04-26T18:16:18.552Z,100005.50
2023-04-26T18:19:21.187Z,100011.47
2023-04-26T18:22:26.909Z,100011.62
2023-04-26T18:25:30.750Z,100005.63
2023-04-26T18:28:33.925Z,100016.03
2023-04-26T18:31:37.040Z,100012.94
2023-04-26T18:34:40.211Z,100020.72
2023-04-26T18:37:42.737Z,100026.44
2023-04-26T18:40:47.810Z,100027.16
2023-04-26T18:43:50.829Z,100027.78
2023-04-26T18:46:55.923Z,100033.16
2023-04-26T18:50:00.795Z,100040.69
2023-04-26T18:53:12.638Z,100045.78
2023-04-26T18:56:15.598Z,100047.09
2023-04-26T18:59:19.962Z,100046.59
2023-04-26T19:02:22.759Z,100061.13
2023-04-26T19:05:27.218Z,100054.34
2023-04-26T19:08:30.133Z,100062.78
2023-04-26T19:11:33.604Z,100058.72
2023-04-26T19:14:36.579Z,100059.53
2023-04-26T19:17:39.722Z,100058.63
2023-04-26T19:20:46.368Z,100061.97
2023-04-26T19:23:49.531Z,100073.94
2023-04-26T19:26:52.454Z,100072.91
2023-04-26T19:29:55.741Z,100066.94
2023-04-26T19:32:58.716Z,100079.62
2023-04-26T19:36:01.741Z,100073.59
2023-04-26T19:39:05.042Z,100071.94
2023-04-26T19:42:08.199Z,100067.00
2023-04-26T19:45:11.460Z,100067.72
2023-04-26T19:48:15.113Z,100066.03
2023-04-26T19:51:18.113Z,100076.78
2023-04-26T19:54:23.539Z,100076.47
2023-04-26T19:57:26.385Z,100081.47
2023-04-26T20:00:30.617Z,100076.50
2023-04-26T20:03:34.276Z,100080.06
2023-04-26T20:06:37.441Z,100078.63
2023-04-26T20:09:40.617Z,100088.66
2023-04-26T20:12:43.462Z,100089.47
2023-04-26T20:15:47.561Z,100092.84
2023-04-26T20:18:50.860Z,100098.66
2023-04-26T20:21:53.986Z,100102.78
2023-04-26T20:24:57.121Z,100107.72
2023-04-26T20:28:02.125Z,100106.88
2023-04-26T20:31:05.244Z,100109.31
2023-04-26T20:34:08.474Z,100105.28
2023-04-26T20:37:10.901Z,100113.31
2023-04-26T20:40:13.760Z,100107.31
2023-04-26T20:43:17.783Z,100115.63
2023-04-26T20:46:20.753Z,100116.66
2023-04-26T20:49:23.638Z,100124.13
2023-04-26T20:52:27.979Z,100115.59
2023-04-26T20:55:30.773Z,100121.28
2023-04-26T20:58:33.813Z,100122.13
2023-04-26T21:01:36.727Z,100120.62
2023-04-26T21:04:42.569Z,100128.13
2023-04-26T21:07:45.457Z,100120.53
2023-04-26T21:10:48.680Z,100126.62
2023-04-26T21:13:52.549Z,100126.91
2023-04-26T21:16:55.492Z,100136.06
2023-04-26T21:19:58.109Z,100135.47
2023-04-26T21:23:00.986Z,100135.66
2023-04-26T21:26:03.671Z,100137.06
2023-04-26T21:29:07.650Z,100139.22
2023-04-26T21:32:10.423Z,100143.34
2023-04-26T21:35:13.230Z,100147.09
2023-04-26T21:38:15.761Z,100153.16
2023-04-26T21:41:18.678Z,100144.81
2023-04-26T21:44:21.492Z,100148.28
2023-04-26T21:47:24.301Z,100150.00
2023-04-26T21:50:26.815Z,100150.34
2023-04-26T21:53:29.586Z,100158.72
2023-04-26T21:56:32.055Z,100157.12
2023-04-26T21:59:35.276Z,100146.56
2023-04-26T22:02:39.152Z,100167.56
2023-04-26T22:05:42.075Z,100158.19
2023-04-26T22:08:46.744Z,100160.06
2023-04-26T22:11:50.057Z,100162.03
2023-04-26T22:14:53.365Z,100160.25
2023-04-26T22:17:56.346Z,100159.03
2023-04-26T22:20:58.904Z,100153.13
2023-04-26T22:24:01.791Z,100165.66
2023-04-26T22:27:04.407Z,100167.53
2023-04-26T22:30:23.177Z,100180.00
2023-04-26T22:33:27.824Z,100184.50
2023-04-26T22:36:31.131Z,100192.00
2023-04-26T22:39:33.709Z,100195.09
2023-04-26T22:42:36.764Z,100197.59
2023-04-26T22:45:39.360Z,100201.88
2023-04-26T22:48:42.110Z,100200.59
2023-04-26T22:51:53.811Z,100201.31
2023-04-26T22:55:06.240Z,100197.69
2023-04-26T22:58:08.729Z,100196.47
2023-04-26T23:01:11.583Z,100200.22
2023-04-26T23:04:14.213Z,100203.94
2023-04-26T23:07:17.116Z,100206.31
2023-04-26T23:10:21.545Z,100206.97
2023-04-26T23:13:25.623Z,100214.94
2023-04-26T23:16:28.515Z,100221.09
2023-04-26T23:19:31.558Z,100219.53
2023-04-26T23:22:34.057Z,100224.34
2023-04-26T23:25:41.718Z,100223.00
2023-04-26T23:28:44.716Z,100225.12
2023-04-26T23:31:48.025Z,100226.97
2023-04-26T23:34:50.651Z,100228.66
2023-04-26T23:37:53.667Z,100225.69
2023-04-26T23:40:56.266Z,100235.75
2023-04-26T23:43:59.461Z,100235.50
2023-04-26T23:47:02.247Z,100239.53
2023-04-26T23:50:05.641Z,100239.12
2023-04-26T23:53:08.308Z,100230.91
2023-04-26T23:56:11.226Z,100236.91
2023-04-26T23:59:15.609Z,100231.72
